MHRO - Juan Manual Galvez Intl.
MHRO 050300Z 09020KT 9999 FEW020 27/23 Q1010 A2983 NOSIG
Observed:
Wind:
visibility:
Flight Rules:
Cloud Levels:
Temperature:
Humidity:
Pressure: